LFOT/TUF METAR and TAF weather

Enter ICAO airport designator
Station Type Date Time Source
LFOT METAR 2020/09/20 07:30 UTC NOAA

LFOT 200730Z AUTO VRB02KT 9999 SCT042 BKN190 19/17 Q1014 TEMPO BKN025TCU FEW040CB


Station Type Date Time Source
LFOT Decoded METAR 2020/09/20 07:30 UTC NOAA

Tours, France (LFOT) 47-27N 000-43E 112M
Sep 20, 2020 - 03:30 AM EDT / 2020.09.20 0730 UTC
Wind: Variable at 2 MPH (2 KT):0
Visibility: greater than 7 mile(s):0
Sky conditions: mostly cloudy
Weather: Cumulonimbus clouds, towering cumulus clouds observed
Temperature: 66 F (19 C)
Dew Point: 62 F (17 C)
Relative Humidity: 88%
Pressure (altimeter): 29.94 in. Hg (1014 hPa)
ob: LFOT 200730Z AUTO VRB02KT 9999 SCT042 BKN190 19/17 Q1014 TEMPO BKN025TCU FEW040CB
cycle: 7

Station Type Date Time Source
LFOT TAF 2020/09/20 06:21 UTC NOAA

TAF TAF LFOT 200500Z 2006/2106 VRB03KT 9999 BKN040
TEMPO 2006/2024 -SHRA BKN025TCU FEW040CB PROB30
TEMPO 2012/2018 -TSRA BKN030CB
BECMG 2012/2014 13005KT
BECMG 2018/2020 VRB02KT
BECMG 2100/2102 3000 BR BKN005 PROB30
TEMPO 2100/2106 0500 FG BKN002

Example: see airport list